Terminal Aerodrome Forecast
Issued by NWS Tulsa, OK

Home | Current Version | Previous Version | Text Only | Print | Product List | Glossary On
Versions: 1 2 3 4 5 6 7 8 9 10 11 12 13 14 15 16
767
FTUS44 KTSA 300520
TAFTUL
TAF
KTUL 300520Z 3006/3106 05003KT P6SM BKN250
     FM301400 14007KT P6SM SCT050 BKN250 PROB30 3015/3019 5SM -TSRA
      BKN035CB
     FM310200 16006KT P6SM BKN250=

USA.gov is the U.S. government's official web portal to all federal, state and local government web resources and services.